sensor_id;sensor_type;location;lat;lon;timestamp;pressure;altitude;pressure_sealevel;temperature
70819;BMP280;58439;51.046;13.692;2023-05-07T00:00:09;100409.41;;;10.88
70819;BMP280;58439;51.046;13.692;2023-05-07T00:02:36;100407.94;;;10.85
70819;BMP280;58439;51.046;13.692;2023-05-07T00:05:05;100408.69;;;10.79
70819;BMP280;58439;51.046;13.692;2023-05-07T00:07:33;100420.50;;;10.75
70819;BMP280;58439;51.046;13.692;2023-05-07T00:10:02;100417.28;;;10.73
70819;BMP280;58439;51.046;13.692;2023-05-07T00:12:30;100428.53;;;10.73
70819;BMP280;58439;51.046;13.692;2023-05-07T00:14:59;100420.91;;;10.72
70819;BMP280;58439;51.046;13.692;2023-05-07T00:17:26;100413.56;;;10.67
70819;BMP280;58439;51.046;13.692;2023-05-07T00:19:53;100415.38;;;10.67
70819;BMP280;58439;51.046;13.692;2023-05-07T00:22:21;100415.03;;;10.70
70819;BMP280;58439;51.046;13.692;2023-05-07T00:24:48;100413.41;;;10.69
70819;BMP280;58439;51.046;13.692;2023-05-07T00:27:15;100416.00;;;10.69
70819;BMP280;58439;51.046;13.692;2023-05-07T00:29:42;100421.72;;;10.72
70819;BMP280;58439;51.046;13.692;2023-05-07T00:32:10;100417.88;;;10.75
70819;BMP280;58439;51.046;13.692;2023-05-07T00:34:37;100417.06;;;10.74
70819;BMP280;58439;51.046;13.692;2023-05-07T00:37:06;100424.31;;;10.72
70819;BMP280;58439;51.046;13.692;2023-05-07T00:39:36;100416.81;;;10.69
70819;BMP280;58439;51.046;13.692;2023-05-07T00:42:03;100418.63;;;10.69
70819;BMP280;58439;51.046;13.692;2023-05-07T00:44:30;100418.16;;;10.65
70819;BMP280;58439;51.046;13.692;2023-05-07T00:46:57;100421.59;;;10.66
70819;BMP280;58439;51.046;13.692;2023-05-07T00:49:44;100418.97;;;10.66
70819;BMP280;58439;51.046;13.692;2023-05-07T00:52:14;100420.91;;;10.72
70819;BMP280;58439;51.046;13.692;2023-05-07T00:54:55;100411.03;;;10.74
70819;BMP280;58439;51.046;13.692;2023-05-07T00:57:24;100416.06;;;10.75
70819;BMP280;58439;51.046;13.692;2023-05-07T00:59:52;100408.41;;;10.74
70819;BMP280;58439;51.046;13.692;2023-05-07T01:02:20;100412.84;;;10.73
70819;BMP280;58439;51.046;13.692;2023-05-07T01:04:48;100411.41;;;10.71
70819;BMP280;58439;51.046;13.692;2023-05-07T01:07:15;100417.28;;;10.73
70819;BMP280;58439;51.046;13.692;2023-05-07T01:09:42;100415.25;;;10.75
70819;BMP280;58439;51.046;13.692;2023-05-07T01:12:10;100420.69;;;10.73
70819;BMP280;58439;51.046;13.692;2023-05-07T01:14:38;100415.44;;;10.73
70819;BMP280;58439;51.046;13.692;2023-05-07T01:17:05;100418.88;;;10.74
70819;BMP280;58439;51.046;13.692;2023-05-07T01:19:33;100419.91;;;10.73
70819;BMP280;58439;51.046;13.692;2023-05-07T01:22:07;100421.88;;;10.71
70819;BMP280;58439;51.046;13.692;2023-05-07T01:24:44;100419.09;;;10.72
70819;BMP280;58439;51.046;13.692;2023-05-07T01:27:13;100418.16;;;10.65
70819;BMP280;58439;51.046;13.692;2023-05-07T01:29:40;100421.81;;;10.64
70819;BMP280;58439;51.046;13.692;2023-05-07T01:32:09;100422.97;;;10.62
70819;BMP280;58439;51.046;13.692;2023-05-07T01:34:37;100419.19;;;10.64
70819;BMP280;58439;51.046;13.692;2023-05-07T01:37:04;100417.75;;;10.62
70819;BMP280;58439;51.046;13.692;2023-05-07T01:39:32;100422.59;;;10.65
70819;BMP280;58439;51.046;13.692;2023-05-07T01:42:01;100423.06;;;10.68
70819;BMP280;58439;51.046;13.692;2023-05-07T01:44:28;100426.63;;;10.67
70819;BMP280;58439;51.046;13.692;2023-05-07T01:46:57;100429.25;;;10.67
70819;BMP280;58439;51.046;13.692;2023-05-07T01:49:25;100428.28;;;10.68
70819;BMP280;58439;51.046;13.692;2023-05-07T01:51:53;100427.75;;;10.73
70819;BMP280;58439;51.046;13.692;2023-05-07T01:54:26;100426.13;;;10.72
70819;BMP280;58439;51.046;13.692;2023-05-07T01:56:57;100422.25;;;10.68
70819;BMP280;58439;51.046;13.692;2023-05-07T01:59:24;100424.88;;;10.68
70819;BMP280;58439;51.046;13.692;2023-05-07T02:01:52;100429.09;;;10.69
70819;BMP280;58439;51.046;13.692;2023-05-07T02:04:20;100424.91;;;10.74
70819;BMP280;58439;51.046;13.692;2023-05-07T02:06:47;100420.34;;;10.77
70819;BMP280;58439;51.046;13.692;2023-05-07T02:09:15;100422.59;;;10.80
70819;BMP280;58439;51.046;13.692;2023-05-07T02:11:47;100422.94;;;10.77
70819;BMP280;58439;51.046;13.692;2023-05-07T02:14:14;100424.75;;;10.76
70819;BMP280;58439;51.046;13.692;2023-05-07T02:16:42;100424.31;;;10.72
70819;BMP280;58439;51.046;13.692;2023-05-07T02:19:14;100425.28;;;10.71
70819;BMP280;58439;51.046;13.692;2023-05-07T02:21:41;100432.34;;;10.71
70819;BMP280;58439;51.046;13.692;2023-05-07T02:24:09;100427.09;;;10.71
70819;BMP280;58439;51.046;13.692;2023-05-07T02:26:36;100435.34;;;10.68
70819;BMP280;58439;51.046;13.692;2023-05-07T02:29:03;100438.28;;;10.65
70819;BMP280;58439;51.046;13.692;2023-05-07T02:31:31;100440.13;;;10.64
70819;BMP280;58439;51.046;13.692;2023-05-07T02:33:58;100439.66;;;10.61
70819;BMP280;58439;51.046;13.692;2023-05-07T02:36:25;100434.09;;;10.64
70819;BMP280;58439;51.046;13.692;2023-05-07T02:39:00;100440.91;;;10.65
70819;BMP280;58439;51.046;13.692;2023-05-07T02:41:27;100437.41;;;10.58
70819;BMP280;58439;51.046;13.692;2023-05-07T02:43:54;100435.59;;;10.58
70819;BMP280;58439;51.046;13.692;2023-05-07T02:46:22;100434.78;;;10.58
70819;BMP280;58439;51.046;13.692;2023-05-07T02:48:57;100429.53;;;10.58
70819;BMP280;58439;51.046;13.692;2023-05-07T02:51:26;100431.53;;;10.56
70819;BMP280;58439;51.046;13.692;2023-05-07T02:53:56;100437.78;;;10.55
70819;BMP280;58439;51.046;13.692;2023-05-07T02:56:26;100438.94;;;10.52
70819;BMP280;58439;51.046;13.692;2023-05-07T02:58:53;100432.25;;;10.50
70819;BMP280;58439;51.046;13.692;2023-05-07T03:01:23;100439.50;;;10.47
70819;BMP280;58439;51.046;13.692;2023-05-07T03:03:59;100433.63;;;10.45
70819;BMP280;58439;51.046;13.692;2023-05-07T03:06:32;100426.59;;;10.46
70819;BMP280;58439;51.046;13.692;2023-05-07T03:08:59;100429.03;;;10.47
70819;BMP280;58439;51.046;13.692;2023-05-07T03:11:27;100431.34;;;10.42
70819;BMP280;58439;51.046;13.692;2023-05-07T03:13:54;100427.13;;;10.41
70819;BMP280;58439;51.046;13.692;2023-05-07T03:16:22;100423.50;;;10.42
70819;BMP280;58439;51.046;13.692;2023-05-07T03:18:49;100431.34;;;10.42
70819;BMP280;58439;51.046;13.692;2023-05-07T03:21:16;100437.34;;;10.36
70819;BMP280;58439;51.046;13.692;2023-05-07T03:23:44;100436.50;;;10.36
70819;BMP280;58439;51.046;13.692;2023-05-07T03:26:11;100443.53;;;10.35
70819;BMP280;58439;51.046;13.692;2023-05-07T03:28:38;100438.31;;;10.35
70819;BMP280;58439;51.046;13.692;2023-05-07T03:31:09;100437.69;;;10.33
70819;BMP280;58439;51.046;13.692;2023-05-07T03:33:50;100445.28;;;10.28
70819;BMP280;58439;51.046;13.692;2023-05-07T03:36:17;100445.59;;;10.25
70819;BMP280;58439;51.046;13.692;2023-05-07T03:38:45;100443.47;;;10.29
70819;BMP280;58439;51.046;13.692;2023-05-07T03:41:12;100444.63;;;10.26
70819;BMP280;58439;51.046;13.692;2023-05-07T03:43:40;100446.56;;;10.24
70819;BMP280;58439;51.046;13.692;2023-05-07T03:46:10;100453.28;;;10.27
70819;BMP280;58439;51.046;13.692;2023-05-07T03:48:37;100446.88;;;10.29
70819;BMP280;58439;51.046;13.692;2023-05-07T03:51:05;100443.81;;;10.26
70819;BMP280;58439;51.046;13.692;2023-05-07T03:53:33;100450.22;;;10.23
70819;BMP280;58439;51.046;13.692;2023-05-07T03:56:00;100453.13;;;10.28
70819;BMP280;58439;51.046;13.692;2023-05-07T03:58:31;100457.34;;;10.29
70819;BMP280;58439;51.046;13.692;2023-05-07T04:01:03;100454.38;;;10.32
70819;BMP280;58439;51.046;13.692;2023-05-07T04:03:30;100453.38;;;10.33
70819;BMP280;58439;51.046;13.692;2023-05-07T04:06:00;100457.34;;;10.29
70819;BMP280;58439;51.046;13.692;2023-05-07T04:08:27;100456.88;;;10.26
70819;BMP280;58439;51.046;13.692;2023-05-07T04:10:58;100456.06;;;10.25
70819;BMP280;58439;51.046;13.692;2023-05-07T04:13:30;100456.13;;;10.32
70819;BMP280;58439;51.046;13.692;2023-05-07T04:16:01;100456.13;;;10.32
70819;BMP280;58439;51.046;13.692;2023-05-07T04:18:29;100457.59;;;10.34
70819;BMP280;58439;51.046;13.692;2023-05-07T04:20:57;100459.88;;;10.37
70819;BMP280;58439;51.046;13.692;2023-05-07T04:23:24;100462.94;;;10.41
70819;BMP280;58439;51.046;13.692;2023-05-07T04:25:52;100467.34;;;10.40
70819;BMP280;58439;51.046;13.692;2023-05-07T04:28:30;100461.50;;;10.38
70819;BMP280;58439;51.046;13.692;2023-05-07T04:30:57;100472.47;;;10.34
70819;BMP280;58439;51.046;13.692;2023-05-07T04:33:25;100476.56;;;10.36
70819;BMP280;58439;51.046;13.692;2023-05-07T04:36:20;100477.53;;;10.35
70819;BMP280;58439;51.046;13.692;2023-05-07T04:39:45;100488.72;;;10.29
70819;BMP280;58439;51.046;13.692;2023-05-07T04:42:17;100479.06;;;10.30
70819;BMP280;58439;51.046;13.692;2023-05-07T04:44:57;100490.97;;;10.32
70819;BMP280;58439;51.046;13.692;2023-05-07T04:47:25;100493.94;;;10.29
70819;BMP280;58439;51.046;13.692;2023-05-07T04:49:54;100490.69;;;10.27
70819;BMP280;58439;51.046;13.692;2023-05-07T04:52:21;100500.81;;;10.30
70819;BMP280;58439;51.046;13.692;2023-05-07T04:54:50;100501.47;;;10.24
70819;BMP280;58439;51.046;13.692;2023-05-07T04:57:17;100499.34;;;10.28
70819;BMP280;58439;51.046;13.692;2023-05-07T04:59:45;100509.63;;;10.29
70819;BMP280;58439;51.046;13.692;2023-05-07T05:02:12;100507.84;;;10.30
70819;BMP280;58439;51.046;13.692;2023-05-07T05:04:40;100515.41;;;10.39
70819;BMP280;58439;51.046;13.692;2023-05-07T05:07:08;100509.66;;;10.44
70819;BMP280;58439;51.046;13.692;2023-05-07T05:09:36;100509.91;;;10.49
70819;BMP280;58439;51.046;13.692;2023-05-07T05:12:03;100509.19;;;10.55
70819;BMP280;58439;51.046;13.692;2023-05-07T05:14:31;100504.88;;;10.62
70819;BMP280;58439;51.046;13.692;2023-05-07T05:16:58;100504.72;;;10.64
70819;BMP280;58439;51.046;13.692;2023-05-07T05:19:25;100503.34;;;10.68
70819;BMP280;58439;51.046;13.692;2023-05-07T05:21:53;100497.75;;;10.71
70819;BMP280;58439;51.046;13.692;2023-05-07T05:24:20;100509.91;;;10.79
70819;BMP280;58439;51.046;13.692;2023-05-07T05:26:48;100509.81;;;10.87
70819;BMP280;58439;51.046;13.692;2023-05-07T05:29:15;100515.16;;;10.93
70819;BMP280;58439;51.046;13.692;2023-05-07T05:31:48;100514.00;;;10.96
70819;BMP280;58439;51.046;13.692;2023-05-07T05:34:32;100527.22;;;10.94
70819;BMP280;58439;51.046;13.692;2023-05-07T05:37:41;100529.69;;;10.96
70819;BMP280;58439;51.046;13.692;2023-05-07T05:40:09;100526.50;;;11.00
70819;BMP280;58439;51.046;13.692;2023-05-07T05:42:37;100530.56;;;11.03
70819;BMP280;58439;51.046;13.692;2023-05-07T05:45:05;100532.66;;;11.08
70819;BMP280;58439;51.046;13.692;2023-05-07T05:47:33;100533.91;;;11.12
70819;BMP280;58439;51.046;13.692;2023-05-07T05:50:01;100545.25;;;11.19
70819;BMP280;58439;51.046;13.692;2023-05-07T05:52:29;100536.78;;;11.17
70819;BMP280;58439;51.046;13.692;2023-05-07T05:54:57;100540.88;;;11.05
70819;BMP280;58439;51.046;13.692;2023-05-07T05:57:29;100538.78;;;11.00
70819;BMP280;58439;51.046;13.692;2023-05-07T06:00:34;100549.88;;;10.87
70819;BMP280;58439;51.046;13.692;2023-05-07T06:03:14;100551.88;;;10.85
70819;BMP280;58439;51.046;13.692;2023-05-07T06:05:42;100550.59;;;10.81
70819;BMP280;58439;51.046;13.692;2023-05-07T06:08:15;100548.44;;;10.70
70819;BMP280;58439;51.046;13.692;2023-05-07T06:10:45;100565.84;;;10.63
70819;BMP280;58439;51.046;13.692;2023-05-07T06:13:13;100561.34;;;10.57
70819;BMP280;58439;51.046;13.692;2023-05-07T06:15:41;100569.72;;;10.52
70819;BMP280;58439;51.046;13.692;2023-05-07T06:18:11;100567.84;;;10.61
70819;BMP280;58439;51.046;13.692;2023-05-07T06:20:39;100560.81;;;10.61
70819;BMP280;58439;51.046;13.692;2023-05-07T06:23:12;100570.13;;;10.64
70819;BMP280;58439;51.046;13.692;2023-05-07T06:25:49;100570.63;;;10.74
70819;BMP280;58439;51.046;13.692;2023-05-07T06:28:19;100571.19;;;10.84
70819;BMP280;58439;51.046;13.692;2023-05-07T06:30:47;100566.84;;;10.91
70819;BMP280;58439;51.046;13.692;2023-05-07T06:33:17;100567.03;;;10.90
70819;BMP280;58439;51.046;13.692;2023-05-07T06:35:44;100565.34;;;10.97
70819;BMP280;58439;51.046;13.692;2023-05-07T06:38:12;100567.50;;;10.93
70819;BMP280;58439;51.046;13.692;2023-05-07T06:40:40;100571.34;;;10.97
70819;BMP280;58439;51.046;13.692;2023-05-07T06:43:07;100575.00;;;10.96
70819;BMP280;58439;51.046;13.692;2023-05-07T06:45:42;100582.47;;;10.99
70819;BMP280;58439;51.046;13.692;2023-05-07T06:48:10;100579.41;;;11.11
70819;BMP280;58439;51.046;13.692;2023-05-07T06:50:48;100583.81;;;11.10
70819;BMP280;58439;51.046;13.692;2023-05-07T06:53:15;100585.28;;;11.13
70819;BMP280;58439;51.046;13.692;2023-05-07T06:55:43;100581.63;;;11.14
70819;BMP280;58439;51.046;13.692;2023-05-07T06:58:11;100584.25;;;11.14
70819;BMP280;58439;51.046;13.692;2023-05-07T07:00:40;100588.44;;;11.08
70819;BMP280;58439;51.046;13.692;2023-05-07T07:03:09;100593.75;;;11.00
70819;BMP280;58439;51.046;13.692;2023-05-07T07:05:37;100596.28;;;10.93
70819;BMP280;58439;51.046;13.692;2023-05-07T07:08:04;100580.59;;;10.93
70819;BMP280;58439;51.046;13.692;2023-05-07T07:10:32;100589.09;;;10.95
70819;BMP280;58439;51.046;13.692;2023-05-07T07:13:00;100581.72;;;11.06
70819;BMP280;58439;51.046;13.692;2023-05-07T07:15:31;100591.94;;;11.15
70819;BMP280;58439;51.046;13.692;2023-05-07T07:17:58;100588.81;;;11.20
70819;BMP280;58439;51.046;13.692;2023-05-07T07:20:25;100596.75;;;11.12
70819;BMP280;58439;51.046;13.692;2023-05-07T07:22:53;100595.56;;;10.99
70819;BMP280;58439;51.046;13.692;2023-05-07T07:25:20;100600.28;;;10.89
70819;BMP280;58439;51.046;13.692;2023-05-07T07:27:49;100597.19;;;10.86
70819;BMP280;58439;51.046;13.692;2023-05-07T07:30:16;100595.72;;;10.83
70819;BMP280;58439;51.046;13.692;2023-05-07T07:32:47;100601.44;;;10.87
70819;BMP280;58439;51.046;13.692;2023-05-07T07:35:16;100603.13;;;10.94
70819;BMP280;58439;51.046;13.692;2023-05-07T07:37:44;100602.34;;;10.94
70819;BMP280;58439;51.046;13.692;2023-05-07T07:40:14;100599.09;;;10.92
70819;BMP280;58439;51.046;13.692;2023-05-07T07:42:42;100605.66;;;11.02
70819;BMP280;58439;51.046;13.692;2023-05-07T07:45:10;100612.47;;;11.12
70819;BMP280;58439;51.046;13.692;2023-05-07T07:47:42;100608.63;;;11.14
70819;BMP280;58439;51.046;13.692;2023-05-07T07:50:09;100613.88;;;11.14
70819;BMP280;58439;51.046;13.692;2023-05-07T07:52:41;100620.56;;;11.17
70819;BMP280;58439;51.046;13.692;2023-05-07T07:55:09;100607.13;;;11.20
70819;BMP280;58439;51.046;13.692;2023-05-07T07:57:37;100616.22;;;11.24
70819;BMP280;58439;51.046;13.692;2023-05-07T08:00:06;100616.13;;;11.32
70819;BMP280;58439;51.046;13.692;2023-05-07T08:02:42;100623.59;;;11.50
70819;BMP280;58439;51.046;13.692;2023-05-07T08:05:15;100627.31;;;11.55
70819;BMP280;58439;51.046;13.692;2023-05-07T08:07:47;100621.78;;;11.50
70819;BMP280;58439;51.046;13.692;2023-05-07T08:10:23;100625.50;;;11.41
70819;BMP280;58439;51.046;13.692;2023-05-07T08:12:56;100635.44;;;11.46
70819;BMP280;58439;51.046;13.692;2023-05-07T08:15:23;100631.53;;;11.56
70819;BMP280;58439;51.046;13.692;2023-05-07T08:17:51;100630.63;;;11.64
70819;BMP280;58439;51.046;13.692;2023-05-07T08:20:18;100629.91;;;11.55
70819;BMP280;58439;51.046;13.692;2023-05-07T08:22:45;100634.50;;;11.53
70819;BMP280;58439;51.046;13.692;2023-05-07T08:25:13;100636.31;;;11.53
70819;BMP280;58439;51.046;13.692;2023-05-07T08:27:40;100640.56;;;11.54
70819;BMP280;58439;51.046;13.692;2023-05-07T08:30:08;100636.69;;;11.65
70819;BMP280;58439;51.046;13.692;2023-05-07T08:32:36;100635.09;;;11.70
70819;BMP280;58439;51.046;13.692;2023-05-07T08:35:03;100631.28;;;11.87
70819;BMP280;58439;51.046;13.692;2023-05-07T08:37:56;100638.34;;;12.08
70819;BMP280;58439;51.046;13.692;2023-05-07T08:40:26;100638.94;;;12.10
70819;BMP280;58439;51.046;13.692;2023-05-07T08:42:59;100637.28;;;12.03
70819;BMP280;58439;51.046;13.692;2023-05-07T08:45:30;100641.16;;;12.07
70819;BMP280;58439;51.046;13.692;2023-05-07T08:48:03;100642.84;;;12.14
70819;BMP280;58439;51.046;13.692;2023-05-07T08:50:38;100637.56;;;12.36
70819;BMP280;58439;51.046;13.692;2023-05-07T08:53:06;100643.91;;;12.48
70819;BMP280;58439;51.046;13.692;2023-05-07T08:55:33;100644.44;;;12.65
70819;BMP280;58439;51.046;13.692;2023-05-07T08:58:00;100646.16;;;12.79
70819;BMP280;58439;51.046;13.692;2023-05-07T09:00:32;100648.34;;;12.76
70819;BMP280;58439;51.046;13.692;2023-05-07T09:03:01;100651.56;;;12.71
70819;BMP280;58439;51.046;13.692;2023-05-07T09:05:31;100650.03;;;12.83
70819;BMP280;58439;51.046;13.692;2023-05-07T09:08:07;100660.03;;;13.01
70819;BMP280;58439;51.046;13.692;2023-05-07T09:10:36;100649.81;;;12.85
70819;BMP280;58439;51.046;13.692;2023-05-07T09:13:04;100654.53;;;12.61
70819;BMP280;58439;51.046;13.692;2023-05-07T09:15:32;100662.34;;;12.33
70819;BMP280;58439;51.046;13.692;2023-05-07T09:18:00;100664.94;;;12.27
70819;BMP280;58439;51.046;13.692;2023-05-07T09:20:33;100667.00;;;12.31
70819;BMP280;58439;51.046;13.692;2023-05-07T09:23:01;100666.28;;;12.44
70819;BMP280;58439;51.046;13.692;2023-05-07T09:25:31;100672.03;;;12.82
70819;BMP280;58439;51.046;13.692;2023-05-07T09:28:04;100668.19;;;13.13
70819;BMP280;58439;51.046;13.692;2023-05-07T09:30:34;100670.25;;;13.24
70819;BMP280;58439;51.046;13.692;2023-05-07T09:33:04;100667.09;;;13.07
70819;BMP280;58439;51.046;13.692;2023-05-07T09:35:37;100668.91;;;12.93
70819;BMP280;58439;51.046;13.692;2023-05-07T09:38:09;100673.59;;;12.77
70819;BMP280;58439;51.046;13.692;2023-05-07T09:40:36;100668.69;;;12.67
70819;BMP280;58439;51.046;13.692;2023-05-07T09:43:10;100672.94;;;12.68
70819;BMP280;58439;51.046;13.692;2023-05-07T09:45:43;100666.56;;;12.77
70819;BMP280;58439;51.046;13.692;2023-05-07T09:48:14;100671.78;;;13.05
70819;BMP280;58439;51.046;13.692;2023-05-07T09:50:51;100667.97;;;13.14
70819;BMP280;58439;51.046;13.692;2023-05-07T09:53:23;100668.56;;;13.10
70819;BMP280;58439;51.046;13.692;2023-05-07T09:55:51;100670.88;;;12.91
70819;BMP280;58439;51.046;13.692;2023-05-07T09:58:22;100663.19;;;12.90
70819;BMP280;58439;51.046;13.692;2023-05-07T10:00:52;100670.84;;;13.19
70819;BMP280;58439;51.046;13.692;2023-05-07T10:03:21;100664.28;;;13.50
70819;BMP280;58439;51.046;13.692;2023-05-07T10:05:59;100662.78;;;13.95
70819;BMP280;58439;51.046;13.692;2023-05-07T10:08:27;100672.53;;;14.41
70819;BMP280;58439;51.046;13.692;2023-05-07T10:10:58;100673.13;;;14.50
70819;BMP280;58439;51.046;13.692;2023-05-07T10:13:29;100675.59;;;14.31
70819;BMP280;58439;51.046;13.692;2023-05-07T10:16:00;100676.97;;;13.87
70819;BMP280;58439;51.046;13.692;2023-05-07T10:18:33;100683.94;;;13.67
70819;BMP280;58439;51.046;13.692;2023-05-07T10:21:19;100673.94;;;13.36
70819;BMP280;58439;51.046;13.692;2023-05-07T10:23:59;100681.47;;;13.46
70819;BMP280;58439;51.046;13.692;2023-05-07T10:26:32;100676.72;;;13.82
70819;BMP280;58439;51.046;13.692;2023-05-07T10:29:20;100670.69;;;14.28
70819;BMP280;58439;51.046;13.692;2023-05-07T10:32:33;100675.34;;;14.66
70819;BMP280;58439;51.046;13.692;2023-05-07T10:35:27;100670.50;;;14.50
70819;BMP280;58439;51.046;13.692;2023-05-07T10:38:43;100662.19;;;14.00
70819;BMP280;58439;51.046;13.692;2023-05-07T10:47:20;100669.25;;;13.99
70819;BMP280;58439;51.046;13.692;2023-05-07T10:51:34;100656.50;;;13.76
70819;BMP280;58439;51.046;13.692;2023-05-07T10:58:29;100663.03;;;14.40
70819;BMP280;58439;51.046;13.692;2023-05-07T11:02:01;100659.66;;;14.97
70819;BMP280;58439;51.046;13.692;2023-05-07T11:05:21;100654.31;;;15.17
70819;BMP280;58439;51.046;13.692;2023-05-07T11:08:02;100659.25;;;15.00
70819;BMP280;58439;51.046;13.692;2023-05-07T11:10:57;100661.25;;;15.05
70819;BMP280;58439;51.046;13.692;2023-05-07T11:13:45;100669.31;;;15.23
70819;BMP280;58439;51.046;13.692;2023-05-07T11:16:26;100661.41;;;15.17
70819;BMP280;58439;51.046;13.692;2023-05-07T11:19:07;100655.66;;;14.82
70819;BMP280;58439;51.046;13.692;2023-05-07T11:21:42;100654.06;;;14.81
70819;BMP280;58439;51.046;13.692;2023-05-07T11:24:46;100657.06;;;14.77
70819;BMP280;58439;51.046;13.692;2023-05-07T11:27:29;100654.88;;;14.74
70819;BMP280;58439;51.046;13.692;2023-05-07T11:29:56;100650.81;;;14.79
70819;BMP280;58439;51.046;13.692;2023-05-07T11:32:31;100654.25;;;14.79
70819;BMP280;58439;51.046;13.692;2023-05-07T11:35:00;100658.72;;;14.79
70819;BMP280;58439;51.046;13.692;2023-05-07T11:37:30;100652.25;;;14.74
70819;BMP280;58439;51.046;13.692;2023-05-07T11:40:08;100654.63;;;14.89
70819;BMP280;58439;51.046;13.692;2023-05-07T11:42:41;100653.97;;;15.07
70819;BMP280;58439;51.046;13.692;2023-05-07T11:45:23;100653.34;;;15.12
70819;BMP280;58439;51.046;13.692;2023-05-07T11:47:52;100652.31;;;15.13
70819;BMP280;58439;51.046;13.692;2023-05-07T11:50:20;100659.25;;;15.07
70819;BMP280;58439;51.046;13.692;2023-05-07T11:52:51;100660.22;;;15.13
70819;BMP280;58439;51.046;13.692;2023-05-07T11:55:19;100655.75;;;15.20
70819;BMP280;58439;51.046;13.692;2023-05-07T11:57:46;100658.75;;;15.30
70819;BMP280;58439;51.046;13.692;2023-05-07T12:00:16;100649.97;;;15.36
70819;BMP280;58439;51.046;13.692;2023-05-07T12:02:47;100658.94;;;15.28
70819;BMP280;58439;51.046;13.692;2023-05-07T12:05:16;100657.59;;;15.13
70819;BMP280;58439;51.046;13.692;2023-05-07T12:07:43;100656.78;;;15.05
70819;BMP280;58439;51.046;13.692;2023-05-07T12:10:12;100658.38;;;15.26
70819;BMP280;58439;51.046;13.692;2023-05-07T12:12:40;100656.88;;;15.37
70819;BMP280;58439;51.046;13.692;2023-05-07T12:15:10;100656.84;;;15.50
70819;BMP280;58439;51.046;13.692;2023-05-07T12:17:44;100663.97;;;15.75
70819;BMP280;58439;51.046;13.692;2023-05-07T12:20:11;100656.47;;;15.96
70819;BMP280;58439;51.046;13.692;2023-05-07T12:22:39;100663.13;;;16.06
70819;BMP280;58439;51.046;13.692;2023-05-07T12:25:07;100669.16;;;15.88
70819;BMP280;58439;51.046;13.692;2023-05-07T12:27:37;100676.13;;;15.76
70819;BMP280;58439;51.046;13.692;2023-05-07T12:30:09;100669.59;;;15.53
70819;BMP280;58439;51.046;13.692;2023-05-07T12:32:37;100672.53;;;15.25
70819;BMP280;58439;51.046;13.692;2023-05-07T12:35:06;100674.41;;;15.05
70819;BMP280;58439;51.046;13.692;2023-05-07T12:37:35;100672.88;;;14.84
70819;BMP280;58439;51.046;13.692;2023-05-07T12:40:10;100674.94;;;14.75
70819;BMP280;58439;51.046;13.692;2023-05-07T12:42:40;100673.66;;;14.98
70819;BMP280;58439;51.046;13.692;2023-05-07T12:45:17;100666.91;;;15.15
70819;BMP280;58439;51.046;13.692;2023-05-07T12:47:46;100670.47;;;15.34
70819;BMP280;58439;51.046;13.692;2023-05-07T12:50:14;100666.81;;;15.35
70819;BMP280;58439;51.046;13.692;2023-05-07T12:52:52;100665.00;;;15.29
70819;BMP280;58439;51.046;13.692;2023-05-07T12:55:19;100663.31;;;15.41
70819;BMP280;58439;51.046;13.692;2023-05-07T12:57:49;100663.53;;;15.46
70819;BMP280;58439;51.046;13.692;2023-05-07T13:00:32;100667.09;;;15.65
70819;BMP280;58439;51.046;13.692;2023-05-07T13:02:59;100661.91;;;15.77
70819;BMP280;58439;51.046;13.692;2023-05-07T13:05:28;100665.25;;;15.97
70819;BMP280;58439;51.046;13.692;2023-05-07T13:07:56;100658.53;;;16.19
70819;BMP280;58439;51.046;13.692;2023-05-07T13:10:25;100655.34;;;16.36
70819;BMP280;58439;51.046;13.692;2023-05-07T13:12:52;100654.75;;;16.34
70819;BMP280;58439;51.046;13.692;2023-05-07T13:15:21;100659.47;;;16.50
70819;BMP280;58439;51.046;13.692;2023-05-07T13:17:48;100653.44;;;16.24
70819;BMP280;58439;51.046;13.692;2023-05-07T13:20:16;100659.06;;;15.78
70819;BMP280;58439;51.046;13.692;2023-05-07T13:22:43;100649.22;;;15.67
70819;BMP280;58439;51.046;13.692;2023-05-07T13:25:10;100657.81;;;15.56
70819;BMP280;58439;51.046;13.692;2023-05-07T13:27:38;100662.44;;;15.60
70819;BMP280;58439;51.046;13.692;2023-05-07T13:30:06;100655.19;;;15.81
70819;BMP280;58439;51.046;13.692;2023-05-07T13:32:34;100652.06;;;15.90
70819;BMP280;58439;51.046;13.692;2023-05-07T13:35:01;100647.88;;;15.83
70819;BMP280;58439;51.046;13.692;2023-05-07T13:37:28;100644.69;;;15.74
70819;BMP280;58439;51.046;13.692;2023-05-07T13:39:56;100647.03;;;15.57
70819;BMP280;58439;51.046;13.692;2023-05-07T13:42:23;100655.22;;;15.49
70819;BMP280;58439;51.046;13.692;2023-05-07T13:44:50;100642.97;;;15.61
70819;BMP280;58439;51.046;13.692;2023-05-07T13:47:17;100639.44;;;15.68
70819;BMP280;58439;51.046;13.692;2023-05-07T13:49:47;100643.66;;;15.75
70819;BMP280;58439;51.046;13.692;2023-05-07T13:52:17;100637.84;;;15.67
70819;BMP280;58439;51.046;13.692;2023-05-07T13:54:44;100643.94;;;15.67
70819;BMP280;58439;51.046;13.692;2023-05-07T13:57:14;100653.00;;;15.78
70819;BMP280;58439;51.046;13.692;2023-05-07T13:59:41;100652.53;;;15.81
70819;BMP280;58439;51.046;13.692;2023-05-07T14:02:08;100648.41;;;15.91
70819;BMP280;58439;51.046;13.692;2023-05-07T14:04:37;100652.19;;;16.02
70819;BMP280;58439;51.046;13.692;2023-05-07T14:07:04;100646.25;;;16.07
70819;BMP280;58439;51.046;13.692;2023-05-07T14:09:32;100644.28;;;16.02
70819;BMP280;58439;51.046;13.692;2023-05-07T14:11:59;100639.03;;;15.95
70819;BMP280;58439;51.046;13.692;2023-05-07T14:14:27;100635.28;;;15.85
70819;BMP280;58439;51.046;13.692;2023-05-07T14:16:54;100644.44;;;15.82